Latest Weather Observations for Orange Airport

IDN60801

Issued at 10:32 pm EST Wednesday 26 September 2018 (issued every 10 minutes, with the page automatically refreshed every 10 minutes)

About weather observations | Map of weather stations | Latest weather observations for NSW | Other Formats
Station Details ID: 063303 Name: ORANGE AIRPORT AWS Lat: -33.38 Lon: 149.13 Height: 944.65 m
Data from the previous 72 hours. | See also: Recent months at Orange Airport
Date/Time
EST
Temp
°C
App
Temp
°C
Dew
Point
°C
Rel
Hum
%
Delta-T
°C
Wind Press
QNH
hPa
Press
MSL
hPa
Rain since
9am
mm
Dir  Spd
km/h
Gust
km/h
Spd
kts
Gust
kts
26/10:30pm 2.8 -1.0 1.8 93 0.4 ESE 11 15 6 8 1022.0 1021.6 8.8
26/10:00pm 2.9 -0.5 1.6 91 0.5 E 9 11 5 6 1022.0 1021.6 8.8
26/09:30pm 3.8 0.9 2.6 92 0.5 E 7 9 4 5 1022.0 1021.6 8.8
26/09:00pm 4.2 1.0 2.9 91 0.6 E 9 11 5 6 1021.9 1021.5 8.8
26/08:30pm 4.8 0.9 3.3 90 0.7 E 13 17 7 9 1021.8 1021.3 8.8
26/08:00pm 4.7 1.1 3.2 90 0.7 ESE 11 15 6 8 1021.4 1021.0 8.8
26/07:30pm 5.1 2.3 3.1 87 0.9 E 7 9 4 5 1021.1 1020.7 8.8
26/07:00pm 5.5 2.3 2.8 83 1.2 E 9 11 5 6 1020.8 1020.3 8.8
26/06:30pm 6.6 3.8 3.4 80 1.4 E 7 9 4 5 1020.6 1020.1 8.8
26/06:00pm 7.7 4.9 3.4 74 1.9 ENE 7 9 4 5 1020.4 1019.9 8.8
26/05:30pm 8.8 5.0 3.8 71 2.3 ENE 13 19 7 10 1020.2 1019.8 8.8
26/05:00pm 9.2 4.8 4.6 73 2.2 ENE 17 22 9 12 1020.0 1019.6 8.8
26/04:30pm 9.8 6.4 5.8 76 1.9 ENE 13 19 7 10 1019.8 1019.3 8.8
26/04:00pm 9.4 4.8 5.8 78 1.7 ENE 19 24 10 13 1019.7 1019.2 8.8
26/03:30pm 10.3 6.0 7.0 80 1.6 ENE 19 26 10 14 1019.6 1019.1 8.8
26/03:00pm 9.4 6.3 5.4 76 1.9 E 11 13 6 7 1019.7 1019.2 8.8
26/02:30pm 8.5 5.8 5.8 83 1.3 ESE 9 13 5 7 1019.6 1019.1 8.8
26/02:00pm 8.9 3.6 7.0 88 0.9 SSE 24 30 13 16 1020.1 1019.7 7.8
26/01:30pm 9.9 6.3 6.8 81 1.5 E 15 20 8 11 1020.1 1019.7 7.4
26/01:00pm 10.2 7.8 6.9 80 1.6 NNE 9 19 5 10 1020.5 1020.0 7.4
26/12:30pm 9.5 6.4 7.1 85 1.2 ENE 13 26 7 14 1020.6 1020.1 7.4
26/12:00pm 8.5 4.5 6.8 89 0.8 ENE 17 24 9 13 1020.8 1020.3 6.8
26/11:30am 7.7 4.5 7.0 95 0.3 NE 13 17 7 9 1021.3 1020.9 6.8
26/11:15am 6.9 3.5 5.8 93 0.5 E 13 20 7 11 1021.4 1021.0 6.6
26/11:00am 6.6 2.9 4.6 87 0.9 E 13 15 7 8 1021.8 1021.3 5.8
26/10:54am 7.5 4.0 5.6 88 0.9 E 13 19 7 10 1022.0 1021.6 3.0
26/10:30am 8.4 3.9 6.2 86 1.1 NE 19 28 10 15 1021.6 1021.1 0.6
26/10:00am 8.8 5.3 7.3 90 0.7 NE 15 20 8 11 1021.9 1021.5 0.6
26/09:30am 8.1 3.7 6.6 90 0.7 NE 19 22 10 12 1022.2 1021.8 0.6
26/09:00am 8.2 4.3 5.5 83 1.3 NE 15 20 8 11 1022.1 1021.7 0.2
26/08:56am 8.6 4.9 6.2 85 1.2 NE 15 20 8 11 1022.1 1021.7 0.2
26/08:37am 7.9 4.4 5.4 84 1.2 NE 13 17 7 9 1022.3 1021.9 0.2
26/08:30am 8.1 5.4 5.4 83 1.3 E 9 17 5 9 1022.3 1021.9 0.2
26/08:00am 8.3 4.3 5.1 80 1.5 NE 15 20 8 11 1021.8 1021.3 0.0
26/07:30am 7.9 4.0 5.4 84 1.2 NE 15 19 8 10 1021.8 1021.3 0.0
26/07:00am 6.7 3.3 5.7 93 0.5 NE 13 15 7 8 1021.3 1020.9 0.0
26/06:30am 4.0 0.5 3.4 96 0.3 NNE 11 13 6 7 1021.6 1021.1 0.0
26/06:00am 4.4 3.0 3.7 95 0.3 CALM 0 0 0 0 1021.4 1021.0 0.0
26/05:30am 4.7 2.2 4.0 95 0.3 N 6 7 3 4 1021.0 1020.6 0.0
26/05:00am 5.0 2.3 3.7 91 0.6 N 7 9 4 5 1020.9 1020.5 0.0
26/04:30am 5.8 1.7 4.4 91 0.6 NNE 15 20 8 11 1020.7 1020.2 0.0
26/04:00am 6.0 2.7 4.5 90 0.7 E 11 17 6 9 1021.0 1020.6 0.0
26/03:30am 6.1 2.8 4.7 91 0.6 NNE 11 15 6 8 1021.3 1020.9 0.0
26/03:00am 5.9 2.6 4.5 91 0.6 NE 11 17 6 9 1021.6 1021.1 0.0
26/02:30am 5.6 2.7 4.6 93 0.5 NE 9 11 5 6 1021.8 1021.3 0.0
26/02:00am 4.6 1.8 2.9 89 0.7 NNE 7 9 4 5 1022.1 1021.7 0.0
26/01:30am 5.0 1.1 3.3 89 0.7 NE 13 15 7 8 1022.3 1021.9 0.0
26/01:00am 5.6 2.4 2.9 83 1.2 NNE 9 11 5 6 1022.8 1022.4 0.0
26/12:30am 6.2 3.3 2.8 79 1.5 NE 7 9 4 5 1022.8 1022.4 0.0
26/12:00am 6.2 2.6 2.8 79 1.5 NE 11 13 6 7 1022.9 1022.5 0.0
 
Date/Time
EST
Temp
°C
App
Temp
°C
Dew
Point
°C
Rel
Hum
%
Delta-T
°C
Wind Press
QNH
hPa
Press
MSL
hPa
Rain since
9am
mm
Dir  Spd
km/h
Gust
km/h
Spd
kts
Gust
kts
25/11:30pm 6.5 3.8 2.4 75 1.8 NE 6 11 3 6 1023.2 1022.8 0.0
25/11:00pm 7.2 3.9 2.7 73 2.0 NE 9 13 5 7 1023.3 1022.9 0.0
25/10:30pm 6.6 3.3 2.5 75 1.8 ENE 9 13 5 7 1023.3 1022.9 0.0
25/10:00pm 6.3 3.0 2.4 76 1.7 ESE 9 13 5 7 1023.3 1022.9 0.0
25/09:30pm 5.4 1.1 1.3 75 1.7 ESE 13 15 7 8 1023.2 1022.8 0.0
25/09:00pm 6.0 2.9 1.2 71 2.0 SSE 7 7 4 4 1023.1 1022.7 0.0
25/08:30pm 6.7 3.6 1.2 68 2.3 SSE 7 7 4 4 1023.0 1022.6 0.0
25/08:00pm 6.1 2.4 0.0 65 2.5 S 9 13 5 7 1023.0 1022.6 0.0
25/07:30pm 8.5 5.1 1.9 63 2.9 SSE 9 9 5 5 1022.8 1022.4 0.0
25/07:00pm 9.5 6.1 2.1 60 3.3 S 9 9 5 5 1022.7 1022.2 0.0
25/06:30pm 9.8 6.8 2.2 59 3.4 SSE 7 7 4 4 1022.5 1022.1 0.0
25/06:00pm 10.8 7.1 2.1 55 3.9 S 11 13 6 7 1022.3 1021.9 0.0
25/05:30pm 12.1 9.2 2.8 53 4.3 S 7 9 4 5 1022.3 1021.9 0.0
25/05:00pm 13.1 8.9 1.8 46 5.1 S 13 17 7 9 1022.1 1021.7 0.0
25/04:30pm 14.0 9.3 1.0 41 5.9 SSW 15 20 8 11 1022.1 1021.7 0.0
25/04:00pm 13.5 10.3 0.9 42 5.6 WNW 7 11 4 6 1022.1 1021.7 0.0
25/03:30pm 14.8 11.3 1.0 39 6.3 W 9 17 5 9 1022.3 1021.9 0.0
25/03:00pm 14.5 11.2 2.4 44 5.6 WNW 9 15 5 8 1022.5 1022.1 0.0
25/02:30pm 15.0 11.1 1.2 39 6.3 WNW 11 19 6 10 1022.8 1022.4 0.0
25/02:00pm 15.4 12.2 3.2 44 5.8 SSW 9 19 5 10 1023.1 1022.7 0.0
25/01:30pm 14.1 10.7 2.0 44 5.6 WSW 9 15 5 8 1023.4 1023.0 0.0
25/01:00pm 14.5 11.9 4.2 50 5.0 NW 7 13 4 7 1023.9 1023.5 0.0
25/12:30pm 14.0 10.8 2.9 47 5.2 NW 9 19 5 10 1024.3 1023.9 0.0
25/12:00pm 12.2 9.0 2.9 53 4.3 NNW 9 13 5 7 1024.8 1024.5 0.0
25/11:30am 11.5 8.8 2.8 55 4.0 N 6 9 3 5 1025.4 1025.0 0.0
25/11:00am 12.0 8.6 3.8 57 3.9 N 11 17 6 9 1025.8 1025.5 0.0
25/10:30am 11.6 8.6 4.1 60 3.6 NE 9 17 5 9 1026.3 1025.9 0.0
25/10:00am 10.6 7.0 4.9 68 2.7 NE 13 24 7 13 1026.5 1026.2 0.0
25/09:30am 9.7 5.2 4.3 69 2.5 NE 17 26 9 14 1026.7 1026.4 0.0
25/09:00am 8.7 3.6 4.3 74 2.0 NE 20 26 11 14 1026.8 1026.5 0.0
25/08:30am 7.5 2.6 4.1 79 1.6 NE 19 24 10 13 1026.8 1026.5 0.0
25/08:09am 6.8 1.9 4.1 83 1.2 NE 19 26 10 14 1026.7 1026.4 0.0
25/08:00am 6.4 1.8 3.7 83 1.2 NE 17 26 9 14 1026.7 1026.4 0.0
25/07:53am 6.6 2.5 4.1 84 1.1 ENE 15 20 8 11 1026.7 1026.4 0.0
25/07:30am 5.9 1.7 3.9 87 0.9 NE 15 20 8 11 1026.6 1026.3 0.0
25/07:00am 5.0 1.9 3.5 90 0.7 ENE 9 15 5 8 1026.3 1025.9 0.0
25/06:30am 3.6 0.4 3.0 96 0.3 NE 9 13 5 7 1026.1 1025.7 0.0
25/06:00am 2.5 0.1 1.9 96 0.2 ENE 4 9 2 5 1025.8 1025.5 0.0
25/05:30am 2.3 -0.7 1.7 96 0.2 ENE 7 9 4 5 1025.6 1025.3 0.0
25/05:00am 2.2 -0.9 1.6 96 0.2 E 7 9 4 5 1025.5 1025.2 0.0
25/04:38am 2.3 -0.6 1.6 95 0.3 ENE 6 7 3 4 1025.4 1025.0 0.0
25/04:30am 2.2 -0.9 1.6 96 0.2 ENE 7 9 4 5 1025.5 1025.2 0.0
25/04:12am 2.6 -0.4 2.0 96 0.2 NE 7 9 4 5 1025.4 1025.0 0.0
25/04:00am 2.4 -0.6 1.8 96 0.2 ENE 7 9 4 5 1025.4 1025.0 0.0
25/03:30am 2.7 -0.3 2.1 96 0.3 ENE 7 11 4 6 1025.5 1025.2 0.0
25/03:00am 2.3 -0.6 1.6 95 0.3 ENE 6 6 3 3 1025.6 1025.3 0.0
25/02:30am 2.8 -0.6 2.1 95 0.3 ENE 9 11 5 6 1025.6 1025.3 0.0
25/02:00am 2.9 -0.5 2.0 94 0.4 ENE 9 13 5 7 1025.8 1025.5 0.0
25/01:30am 3.0 -0.4 2.1 94 0.4 ENE 9 13 5 7 1026.1 1025.7 0.0
25/01:00am 3.2 -0.1 2.3 94 0.4 ENE 9 13 5 7 1026.4 1026.0 0.0
25/12:30am 3.2 0.2 2.2 93 0.4 E 7 11 4 6 1026.6 1026.3 0.0
25/12:00am 3.8 0.9 2.8 93 0.4 ENE 7 11 4 6 1026.6 1026.3 0.0
 
Date/Time
EST
Temp
°C
App
Temp
°C
Dew
Point
°C
Rel
Hum
%
Delta-T
°C
Wind Press
QNH
hPa
Press
MSL
hPa
Rain since
9am
mm
Dir  Spd
km/h
Gust
km/h
Spd
kts
Gust
kts
24/11:30pm 3.8 0.5 2.5 91 0.6 ENE 9 13 5 7 1026.5 1026.2 0.0
24/11:00pm 4.5 0.6 3.2 91 0.6 E 13 19 7 10 1026.6 1026.3 0.0
24/10:30pm 4.3 0.6 2.5 88 0.8 E 11 17 6 9 1026.7 1026.4 0.0
24/10:00pm 4.9 0.9 3.1 88 0.8 E 13 17 7 9 1026.6 1026.3 0.0
24/09:30pm 5.3 1.4 3.3 87 0.9 E 13 17 7 9 1026.5 1026.2 0.0
24/09:00pm 5.3 0.6 3.3 87 0.9 E 17 22 9 12 1026.5 1026.2 0.0
24/08:30pm 5.8 1.1 3.3 84 1.1 E 17 22 9 12 1026.5 1026.2 0.0
24/08:00pm 6.2 1.5 3.2 81 1.3 ENE 17 24 9 13 1026.4 1026.0 0.0
24/07:30pm 6.6 1.9 3.2 79 1.5 ENE 17 22 9 12 1026.4 1026.0 0.0
24/07:00pm 7.1 2.4 3.3 77 1.7 ENE 17 22 9 12 1026.2 1025.8 0.0
24/06:30pm 7.7 3.8 3.4 74 1.9 ENE 13 19 7 10 1025.7 1025.4 0.0
24/06:00pm 8.7 4.1 3.7 71 2.3 ENE 17 24 9 13 1025.5 1025.2 0.0
24/05:30pm 9.7 4.6 4.1 68 2.6 ENE 20 32 11 17 1025.3 1024.9 0.0
24/05:00pm 10.4 4.6 4.3 66 2.9 E 24 35 13 19 1025.3 1024.9 0.0
24/04:30pm 10.8 5.4 4.3 64 3.1 ENE 22 32 12 17 1025.3 1024.9 0.0
24/04:00pm 11.6 5.9 4.8 63 3.3 ENE 24 33 13 18 1025.1 1024.7 0.0
24/03:30pm 12.0 6.2 4.5 60 3.6 E 24 35 13 19 1025.1 1024.7 0.0
24/03:00pm 12.9 7.6 4.8 58 3.9 E 22 32 12 17 1025.2 1024.8 0.0
24/02:30pm 13.7 8.6 4.3 53 4.5 E 20 28 11 15 1025.3 1024.9 0.0
24/02:00pm 14.3 10.0 5.1 54 4.5 ENE 17 28 9 15 1025.6 1025.3 0.0
24/01:30pm 13.8 9.4 4.7 54 4.4 ENE 17 32 9 17 1025.9 1025.6 0.0
24/01:00pm 13.4 9.4 4.8 56 4.2 ENE 15 22 8 12 1026.3 1025.9 0.0
24/12:30pm 12.5 8.7 4.0 56 4.0 ENE 13 20 7 11 1026.6 1026.3 0.0
24/12:00pm 13.0 8.7 5.2 59 3.8 NE 17 28 9 15 1026.8 1026.5 0.0
24/11:30am 13.3 8.7 5.5 59 3.9 ENE 19 30 10 16 1027.3 1026.9 0.0
24/11:00am 12.4 8.2 5.6 63 3.3 ENE 17 24 9 13 1027.7 1027.4 0.0
24/10:30am 11.4 6.6 4.6 63 3.3 ENE 19 28 10 15 1027.8 1027.5 0.0
24/10:00am 10.0 5.0 4.4 68 2.6 NE 20 28 11 15 1028.1 1027.8 0.0
24/09:30am 9.5 4.1 4.5 71 2.4 ENE 22 30 12 16 1028.1 1027.8 0.0
24/09:00am 9.2 4.2 4.8 74 2.1 E 20 30 11 16 1028.2 1028.0 0.0
24/08:43am 8.7 3.3 4.3 74 2.0 ENE 22 30 12 16 1028.0 1027.7 0.0
24/08:30am 8.4 3.4 4.4 76 1.9 ENE 20 32 11 17 1028.0 1027.7 0.0
24/08:25am 8.5 3.1 4.5 76 1.9 E 22 32 12 17 1027.9 1027.6 0.0
24/08:13am 7.2 1.7 3.8 79 1.5 E 22 32 12 17 1027.9 1027.6 0.0
24/08:00am 6.6 0.6 3.6 81 1.3 E 24 32 13 17 1027.9 1027.6 0.0
24/07:30am 6.0 1.0 3.5 84 1.1 E 19 26 10 14 1027.7 1027.4 0.0
24/07:00am 5.6 0.6 3.8 88 0.8 E 19 26 10 14 1027.5 1027.2 0.0
24/06:30am 4.9 1.0 3.4 90 0.7 E 13 17 7 9 1027.0 1026.7 0.0
24/06:00am 5.0 -0.1 3.3 89 0.7 E 19 24 10 13 1026.7 1026.4 0.0
24/05:30am 5.8 0.6 3.8 87 0.9 E 20 28 11 15 1026.4 1026.0 0.0
24/05:00am 6.1 0.6 3.9 86 1.0 E 22 30 12 16 1025.9 1025.6 0.0
24/04:31am 6.4 0.6 4.4 87 0.9 E 24 32 13 17 1025.6 1025.3 0.0
24/04:30am 6.4 0.6 4.4 87 0.9 E 24 32 13 17 1025.6 1025.3 0.0
24/04:19am 6.5 0.8 4.7 88 0.8 E 24 30 13 16 1025.4 1025.0 0.0
24/04:00am 6.8 1.9 5.1 89 0.8 E 20 28 11 15 1025.3 1024.9 0.0
24/03:30am 7.4 2.8 5.7 89 0.8 E 19 26 10 14 1025.2 1024.8 0.0
24/03:00am 7.6 3.8 5.6 87 0.9 ENE 15 20 8 11 1025.2 1024.8 0.0
24/02:30am 7.8 3.2 5.8 87 1.0 ENE 19 28 10 15 1025.4 1025.0 0.0
24/02:00am 7.5 2.4 6.0 90 0.7 E 22 30 12 16 1025.8 1025.5 0.0
24/01:30am 7.4 2.6 5.7 89 0.8 E 20 28 11 15 1025.9 1025.6 0.0
24/01:00am 8.0 4.0 6.6 91 0.7 E 17 24 9 13 1026.3 1025.9 0.0
24/12:30am 7.4 3.9 7.0 97 0.2 E 15 20 8 11 1026.3 1025.9 0.0
24/12:29am 7.4 3.9 7.0 97 0.2 E 15 20 8 11 1026.3 1025.9 0.0
24/12:00am 6.8 3.1 6.2 96 0.3 ESE 15 19 8 10 1026.3 1025.9 0.0
 
Date/Time
EST
Temp
°C
App
Temp
°C
Dew
Point
°C
Rel
Hum
%
Delta-T
°C
Wind Press
QNH
hPa
Press
MSL
hPa
Rain since
9am
mm
Dir  Spd
km/h
Gust
km/h
Spd
kts
Gust
kts
23/11:30pm 6.2 2.6 5.2 93 0.5 ESE 13 13 7 7 1026.4 1026.0 0.0
23/11:00pm 6.9 3.5 5.7 92 0.6 ESE 13 15 7 8 1026.4 1026.0 0.0

Other Formats:

Comma delimited format used in spreadsheet applications
http://www.bom.gov.au/fwo/IDN60801/IDN60801.95726.axf

JavaScript Object Notation format (JSON) in row-major order
http://www.bom.gov.au/fwo/IDN60801/IDN60801.95726.json